KJFK/JFK METAR and TAF weather

Enter ICAO airport designator
Station Type Date Time Source
KJFK METAR 2020/09/22 03:51 UTC NOAA

KJFK 220351Z 35007KT 10SM SCT300 11/03 A3036 RMK AO2 SLP281 FU SCT300 T01110028 $


Station Type Date Time Source
KJFK Decoded METAR 2020/09/22 03:51 UTC NOAA

KENNEDY INTERNATIONAL AIRPORT , NY, United States (KJFK) 40-38N 073-46W 9M
Sep 21, 2020 - 11:51 PM EDT / 2020.09.22 0351 UTC
Wind: from the N (350 degrees) at 8 MPH (7 KT):0
Visibility: 10 mile(s):0
Sky conditions: partly cloudy
Temperature: 52.0 F (11.1 C)
Dew Point: 37.0 F (2.8 C)
Relative Humidity: 56%
Pressure (altimeter): 30.36 in. Hg (1028 hPa)
ob: KJFK 220351Z 35007KT 10SM SCT300 11/03 A3036 RMK AO2 SLP281 FU SCT300 T01110028
cycle: 4

Station Type Date Time Source
KJFK TAF 2020/09/22 03:34 UTC NOAA

TAF
AMD KJFK 220232Z 2203/2306 36007KT P6SM FEW060 FEW300
FM220400 02009KT P6SM FEW250
FM221000 35008KT P6SM SKC
FM221500 35011G20KT P6SM SKC
FM221800 33015G24KT P6SM SKC
FM230000 31013KT P6SM SKC

Example: see airport list